DTMB/MIR METAR and TAF weather

Enter ICAO airport designator
Station Type Date Time Source
DTMB METAR 2019/09/21 05:00 UTC NOAA

DTMB 210500Z 00000KT 7000 SCT020 BKN040 26/26 Q1017


Station Type Date Time Source
DTMB Decoded METAR 2019/09/21 05:00 UTC NOAA

Habib Bourguiba , Tunisia (DTMB) 35-46N 010-45E
Sep 21, 2019 - 01:00 AM EDT / 2019.09.21 0500 UTC
Wind: Calm:0
Visibility: 4 mile(s):0
Sky conditions: mostly cloudy
Temperature: 78 F (26 C)
Dew Point: 78 F (26 C)
Relative Humidity: 100%
Pressure (altimeter): 30.03 in. Hg (1017 hPa)
ob: DTMB 210500Z 00000KT 7000 SCT020 BKN040 26/26 Q1017
cycle: 5

Station Type Date Time Source
DTMB TAF 2019/09/20 18:40 UTC NOAA

TAF DTMB 201700Z 2018/2118 09011KT 8000 SCT033 PROB30
TEMPO 2018/2021 VRB15G25KT 4000 -TS SHRA FEW033CB
BECMG 2022/2024 14002KT
BECMG 2106/2108 14012KT

Example: see airport list